^^
B2 Weather Station Historical Data
Daily Summary for January 12, 2019 Units:  English    Metric   Both
Daily Weekly Monthly Yearly Custom
  High: Low: Average:
Temperature: 29.0 °F 26.7 °F 27.9 °F
Dew Point: 27.0 °F 24.7 °F 25.7 °F
Humidity: 94% 84% 91%
Wind Speed: 19.6mph 0.0mph 10.3mph
Wind Gust: 13.5mph - -
Wind- - ESE
Pressure: 30.36 in 30.27 in -
Precipitation: 0.48 in    
Historical Graphs
 
 
Tabular Data for January 12, 2019
Time Temperature Dew Point Pressure Wind Wind Speed Wind Gust Humidity Rainfall Rate (Hourly) solar
00:04 29.0 °F 24.8 °F 30.34 in ESE 2.0 mph 1.8 mph 84% 0.00 in 0.00 W/m2
00:09 29.0 °F 24.8 °F 30.34 in ESE 3.5 mph 2.6 mph 84% 0.00 in 0.00 W/m2
00:14 28.9 °F 24.7 °F 30.34 in ESE 2.3 mph 1.2 mph 84% 0.00 in 0.00 W/m2
00:19 29.0 °F 25.1 °F 30.34 in ESE 3.5 mph 1.6 mph 85% 0.00 in 0.00 W/m2
00:24 28.9 °F 25.0 °F 30.34 in ESE 3.5 mph 2.5 mph 85% 0.00 in 0.00 W/m2
00:29 28.9 °F 25.0 °F 30.34 in ESE 3.5 mph 2.8 mph 85% 0.00 in 0.00 W/m2
00:34 28.9 °F 25.0 °F 30.34 in ESE 3.5 mph 2.5 mph 85% 0.00 in 0.00 W/m2
00:39 28.9 °F 25.0 °F 30.34 in ESE 3.5 mph 2.5 mph 85% 0.00 in 0.00 W/m2
00:44 28.9 °F 25.0 °F 30.34 in ESE 3.5 mph 1.8 mph 85% 0.00 in 0.00 W/m2
00:49 28.9 °F 25.0 °F 30.34 in East 4.6 mph 3.4 mph 85% 0.00 in 0.00 W/m2
00:54 28.9 °F 25.0 °F 30.34 in East 4.6 mph 3.5 mph 85% 0.00 in 0.00 W/m2
00:59 28.9 °F 25.0 °F 30.34 in East 3.5 mph 2.6 mph 85% 0.00 in 0.00 W/m2
01:04 28.9 °F 25.0 °F 30.34 in East 1.2 mph   85% 0.00 in 0.00 W/m2
01:09 28.9 °F 25.0 °F 30.34 in East 1.2 mph 0.1 mph 85% 0.00 in 0.00 W/m2
01:14 28.9 °F 25.0 °F 30.34 in East 3.5 mph 2.9 mph 85% 0.00 in 0.00 W/m2
01:19 28.9 °F 25.0 °F 30.33 in East 3.5 mph 1.9 mph 85% 0.00 in 0.00 W/m2
01:24 28.9 °F 25.0 °F 30.33 in East 3.5 mph 3.9 mph 85% 0.00 in 0.00 W/m2
01:29 28.9 °F 25.0 °F 30.32 in East 5.0 mph 5.0 mph 85% 0.00 in 0.00 W/m2
01:34 28.9 °F 25.0 °F 30.32 in East 6.9 mph 4.0 mph 85% 0.00 in 0.00 W/m2
01:39 28.9 °F 25.0 °F 30.32 in East 7.0 mph 5.5 mph 85% 0.00 in 0.00 W/m2
01:44 28.9 °F 25.0 °F 30.33 in East 4.6 mph 3.3 mph 85% 0.00 in 0.00 W/m2
01:49 29.0 °F 25.1 °F 30.33 in East 3.5 mph 1.8 mph 85% 0.00 in 0.00 W/m2
01:54 29.0 °F 25.1 °F 30.34 in East 5.0 mph 2.7 mph 85% 0.00 in 0.00 W/m2
01:59 29.0 °F 25.1 °F 30.34 in East 4.6 mph 3.2 mph 85% 0.00 in 0.00 W/m2
02:04 29.0 °F 25.1 °F 30.34 in ESE 5.8 mph 2.4 mph 85% 0.00 in 0.00 W/m2
02:09 29.0 °F 25.1 °F 30.34 in East 4.6 mph 2.2 mph 85% 0.00 in 0.00 W/m2
02:14 29.0 °F 25.1 °F 30.34 in East 4.6 mph 3.2 mph 85% 0.00 in 0.00 W/m2
02:19 29.0 °F 25.1 °F 30.34 in East 4.6 mph 2.4 mph 85% 0.00 in 0.00 W/m2
02:24 29.0 °F 25.1 °F 30.34 in East 4.6 mph 1.6 mph 85% 0.00 in 0.00 W/m2
02:29 29.0 °F 25.1 °F 30.34 in East 3.5 mph 1.3 mph 85% 0.00 in 0.00 W/m2
02:34 29.0 °F 25.1 °F 30.34 in East 3.5 mph 1.8 mph 85% 0.00 in 0.00 W/m2
02:39 29.0 °F 25.1 °F 30.33 in East 1.2 mph 0.8 mph 85% 0.00 in 0.00 W/m2
02:44 29.0 °F 25.1 °F 30.33 in Calm     85% 0.00 in 0.00 W/m2
02:49 29.0 °F 25.1 °F 30.33 in Calm     85% 0.00 in 0.00 W/m2
02:54 29.0 °F 25.1 °F 30.33 in East 2.0 mph 0.9 mph 85% 0.00 in 0.00 W/m2
02:59 29.0 °F 25.1 °F 30.33 in Calm     85% 0.00 in 0.00 W/m2
03:04 29.0 °F 25.1 °F 30.33 in East 3.0 mph 1.0 mph 85% 0.00 in 0.00 W/m2
03:09 29.0 °F 25.1 °F 30.33 in East 2.3 mph   85% 0.00 in 0.00 W/m2
03:14 29.0 °F 25.1 °F 30.33 in ENE 3.5 mph 1.5 mph 85% 0.00 in 0.00 W/m2
03:19 29.0 °F 25.1 °F 30.33 in East 3.5 mph 1.2 mph 85% 0.00 in 0.00 W/m2
03:24 29.0 °F 25.1 °F 30.33 in ENE 2.3 mph 0.5 mph 85% 0.00 in 0.00 W/m2
03:29 29.0 °F 25.1 °F 30.33 in ENE 1.2 mph 0.8 mph 85% 0.00 in 0.00 W/m2
03:34 29.0 °F 25.1 °F 30.33 in ENE 3.5 mph   85% 0.00 in 0.00 W/m2
03:39 28.9 °F 25.2 °F 30.33 in East 2.3 mph 0.9 mph 86% 0.00 in 0.00 W/m2
03:44 28.9 °F 25.2 °F 30.33 in ENE 1.2 mph   86% 0.00 in 0.00 W/m2
03:49 28.9 °F 25.2 °F 30.33 in ENE 2.3 mph 1.1 mph 86% 0.00 in 0.00 W/m2
03:54 28.8 °F 25.1 °F 30.33 in ENE 2.3 mph 0.7 mph 86% 0.00 in 0.00 W/m2
03:59 28.8 °F 25.1 °F 30.33 in East 2.3 mph 0.4 mph 86% 0.00 in 0.00 W/m2
04:04 28.8 °F 25.1 °F 30.33 in East 2.3 mph 1.0 mph 86% 0.00 in 0.00 W/m2
04:09 28.8 °F 25.1 °F 30.33 in East 3.5 mph 1.2 mph 86% 0.00 in 0.00 W/m2
04:14 28.8 °F 25.1 °F 30.33 in North 3.5 mph 0.6 mph 86% 0.00 in 0.00 W/m2
04:19 28.8 °F 25.1 °F 30.32 in ENE 2.3 mph 0.4 mph 86% 0.00 in 0.00 W/m2
04:24 28.7 °F 25.3 °F 30.32 in East 2.3 mph 1.0 mph 87% 0.00 in 0.00 W/m2
04:29 28.7 °F 25.0 °F 30.32 in ENE 3.5 mph 1.7 mph 86% 0.00 in 0.00 W/m2
04:34 28.6 °F 25.2 °F 30.32 in ENE 3.5 mph 1.8 mph 87% 0.00 in 0.00 W/m2
04:39 28.6 °F 24.9 °F 30.33 in ENE 3.5 mph 0.8 mph 86% 0.00 in 0.00 W/m2
04:44 28.6 °F 24.9 °F 30.32 in East 4.6 mph 1.7 mph 86% 0.00 in 0.00 W/m2
04:49 28.6 °F 24.9 °F 30.33 in East 4.6 mph 2.1 mph 86% 0.00 in 0.00 W/m2
04:54 28.5 °F 24.8 °F 30.32 in North 4.6 mph 1.1 mph 86% 0.00 in 0.00 W/m2
04:59 28.5 °F 25.1 °F 30.33 in ESE 4.6 mph 3.2 mph 87% 0.00 in 0.00 W/m2
05:04 28.5 °F 25.1 °F 30.33 in ENE 2.3 mph 0.4 mph 87% 0.00 in 0.00 W/m2
05:09 28.5 °F 25.1 °F 30.33 in East 3.5 mph 0.8 mph 87% 0.00 in 0.00 W/m2
05:14 28.5 °F 25.1 °F 30.33 in East 4.6 mph 1.8 mph 87% 0.00 in 0.00 W/m2
05:19 28.5 °F 25.1 °F 30.33 in ENE 4.6 mph 1.0 mph 87% 0.00 in 0.00 W/m2
05:24 28.5 °F 25.1 °F 30.33 in ENE 5.0 mph 2.9 mph 87% 0.00 in 0.00 W/m2
05:29 28.5 °F 25.1 °F 30.33 in East 8.1 mph 5.6 mph 87% 0.00 in 0.00 W/m2
05:34 28.5 °F 25.1 °F 30.33 in ENE 6.9 mph 4.6 mph 87% 0.00 in 0.00 W/m2
05:39 28.4 °F 25.0 °F 30.33 in ENE 9.2 mph 7.2 mph 87% 0.00 in 0.00 W/m2
05:44 28.4 °F 25.0 °F 30.33 in ENE 9.2 mph 6.5 mph 87% 0.00 in 0.00 W/m2
05:49 28.4 °F 25.0 °F 30.33 in East 9.2 mph 5.1 mph 87% 0.00 in 0.00 W/m2
05:54 28.3 °F 24.9 °F 30.33 in ENE 10.4 mph 7.4 mph 87% 0.00 in 0.00 W/m2
05:59 28.3 °F 24.9 °F 30.33 in ENE 9.2 mph 5.0 mph 87% 0.00 in 0.00 W/m2
06:04 28.3 °F 24.9 °F 30.32 in ENE 8.1 mph 6.2 mph 87% 0.00 in 0.00 W/m2
06:09 28.3 °F 24.9 °F 30.32 in ENE 9.0 mph 6.2 mph 87% 0.00 in 0.00 W/m2
06:14 28.3 °F 24.9 °F 30.32 in ENE 9.2 mph 7.3 mph 87% 0.00 in 0.00 W/m2
06:19 28.3 °F 24.9 °F 30.32 in ENE 10.0 mph 7.3 mph 87% 0.00 in 0.00 W/m2
06:24 28.3 °F 24.9 °F 30.32 in ENE 11.5 mph 8.1 mph 87% 0.00 in 0.00 W/m2
06:29 28.3 °F 24.9 °F 30.32 in North 10.4 mph 6.7 mph 87% 0.00 in 0.00 W/m2
06:34 28.3 °F 24.9 °F 30.31 in ENE 10.4 mph 7.5 mph 87% 0.00 in 0.00 W/m2
06:39 28.3 °F 24.9 °F 30.32 in NE 10.4 mph 6.6 mph 87% 0.00 in 0.00 W/m2
06:44 28.2 °F 24.8 °F 30.32 in ENE 11.5 mph 8.1 mph 87% 0.00 in 0.00 W/m2
06:49 28.2 °F 24.8 °F 30.31 in ENE 10.4 mph 7.6 mph 87% 0.00 in 0.00 W/m2
06:54 28.2 °F 24.8 °F 30.32 in East 10.4 mph 7.4 mph 87% 0.00 in 0.00 W/m2
06:59 28.2 °F 24.8 °F 30.32 in East 8.1 mph 5.1 mph 87% 0.00 in 0.00 W/m2
07:04 28.2 °F 25.1 °F 30.32 in East 8.1 mph 6.5 mph 88% 0.00 in 0.00 W/m2
07:09 28.1 °F 25.0 °F 30.32 in East 10.4 mph 6.3 mph 88% 0.00 in 0.00 W/m2
07:14 28.1 °F 25.0 °F 30.32 in East 10.4 mph 6.2 mph 88% 0.00 in 0.00 W/m2
07:19 28.1 °F 25.0 °F 30.32 in ENE 8.1 mph 6.9 mph 88% 0.00 in 0.00 W/m2
07:24 28.0 °F 25.2 °F 30.32 in ENE 9.2 mph 5.3 mph 89% 0.00 in 0.00 W/m2
07:29 27.9 °F 25.1 °F 30.32 in East 10.0 mph 7.2 mph 89% 0.00 in 0.00 W/m2
07:34 27.9 °F 25.3 °F 30.33 in ENE 10.4 mph 7.2 mph 90% 0.00 in 0.00 W/m2
07:39 27.8 °F 25.2 °F 30.33 in North 9.2 mph 6.9 mph 90% 0.00 in 5.00 W/m2
07:44 27.7 °F 25.4 °F 30.34 in ENE 8.0 mph 5.3 mph 91% 0.00 in 5.00 W/m2
07:49 27.6 °F 25.3 °F 30.34 in ENE 5.8 mph 5.4 mph 91% 0.00 in 5.00 W/m2
07:54 27.6 °F 25.3 °F 30.34 in ENE 8.1 mph 4.5 mph 91% 0.00 in 7.00 W/m2
07:59 27.6 °F 25.6 °F 30.34 in ENE 7.0 mph 5.7 mph 92% 0.00 in 9.00 W/m2
08:04 27.6 °F 25.6 °F 30.34 in ENE 6.9 mph 4.7 mph 92% 0.00 in 12.00 W/m2
08:09 27.6 °F 25.6 °F 30.34 in ENE 8.1 mph 5.5 mph 92% 0.00 in 12.00 W/m2
08:14 27.5 °F 25.5 °F 30.34 in ENE 8.1 mph 5.0 mph 92% 0.00 in 12.00 W/m2
08:19 27.5 °F 25.5 °F 30.35 in NE 8.1 mph 5.9 mph 92% 0.00 in 14.00 W/m2
08:24 27.5 °F 25.5 °F 30.35 in ENE 8.1 mph 6.7 mph 92% 0.01 in 18.00 W/m2
08:29 27.5 °F 25.7 °F 30.35 in East 8.1 mph 5.6 mph 93% 0.01 in 25.00 W/m2
08:34 27.6 °F 25.8 °F 30.35 in East 8.1 mph 5.6 mph 93% 0.01 in 33.00 W/m2
08:39 27.6 °F 25.8 °F 30.35 in ENE 9.2 mph 6.9 mph 93% 0.01 in 37.00 W/m2
08:44 27.7 °F 25.9 °F 30.36 in East 7.0 mph 5.6 mph 93% 0.01 in 33.00 W/m2
08:49 27.6 °F 25.8 °F 30.35 in ENE 9.2 mph 6.5 mph 93% 0.01 in 26.00 W/m2
08:54 27.6 °F 25.8 °F 30.35 in ENE 8.1 mph 5.7 mph 93% 0.02 in 28.00 W/m2
08:59 27.6 °F 25.8 °F 30.35 in ENE 11.0 mph 5.7 mph 93% 0.02 in 37.00 W/m2
09:04 27.7 °F 25.9 °F 30.35 in East 8.1 mph 6.1 mph 93% 0.02 in 53.00 W/m2
09:09 27.8 °F 26.0 °F 30.35 in ENE 8.1 mph 5.9 mph 93% 0.02 in 60.00 W/m2
09:14 27.9 °F 26.1 °F 30.35 in North 7.0 mph 6.8 mph 93% 0.02 in 72.00 W/m2
09:19 27.9 °F 26.1 °F 30.36 in ENE 9.2 mph 5.9 mph 93% 0.02 in 74.00 W/m2
09:24 28.0 °F 26.5 °F 30.36 in East 9.2 mph 7.6 mph 94% 0.01 in 72.00 W/m2
09:29 28.0 °F 26.5 °F 30.36 in East 8.1 mph 5.5 mph 94% 0.01 in 81.00 W/m2
09:34 28.0 °F 26.2 °F 30.36 in ENE 8.1 mph 7.7 mph 93% 0.01 in 91.00 W/m2
09:39 28.1 °F 26.6 °F 30.35 in NE 8.1 mph 6.3 mph 94% 0.01 in 91.00 W/m2
09:44 28.2 °F 26.7 °F 30.35 in East 10.4 mph 8.1 mph 94% 0.01 in 120.00 W/m2
09:49 28.3 °F 26.8 °F 30.35 in ENE 10.0 mph 7.5 mph 94% 0.01 in 109.00 W/m2
09:54 28.3 °F 26.8 °F 30.35 in East 10.4 mph 7.7 mph 94% 0.01 in 95.00 W/m2
09:59 28.2 °F 26.7 °F 30.35 in ENE 10.4 mph 7.8 mph 94% 0.01 in 95.00 W/m2
10:04 28.2 °F 26.7 °F 30.35 in ENE 10.4 mph 8.3 mph 94% 0.01 in 86.00 W/m2
10:09 28.2 °F 26.7 °F 30.35 in ENE 10.4 mph 8.1 mph 94% 0.01 in 86.00 W/m2
10:14 28.3 °F 26.8 °F 30.35 in East 8.1 mph 7.7 mph 94% 0.01 in 81.00 W/m2
10:19 28.2 °F 26.7 °F 30.35 in East 10.4 mph 7.9 mph 94% 0.01 in 79.00 W/m2
10:24 28.2 °F 26.7 °F 30.35 in ENE 10.0 mph 8.0 mph 94% 0.01 in 107.00 W/m2
10:29 28.3 °F 26.8 °F 30.35 in ENE 11.5 mph 7.1 mph 94% 0.01 in 114.00 W/m2
10:34 28.4 °F 26.9 °F 30.35 in North 11.5 mph 7.9 mph 94% 0.01 in 91.00 W/m2
10:39 28.3 °F 26.8 °F 30.35 in North 12.7 mph 7.7 mph 94% 0.01 in 90.00 W/m2
10:44 28.3 °F 26.8 °F 30.34 in East 10.4 mph 7.3 mph 94% 0.01 in 91.00 W/m2
10:49 28.3 °F 26.8 °F 30.34 in ENE 9.2 mph 7.0 mph 94% 0.01 in 90.00 W/m2
10:54 28.3 °F 26.8 °F 30.33 in ENE 11.5 mph 7.6 mph 94% 0.00 in 97.00 W/m2
10:59 28.3 °F 26.8 °F 30.33 in East 12.7 mph 8.3 mph 94% 0.00 in 91.00 W/m2
11:04 28.3 °F 26.8 °F 30.33 in ENE 10.0 mph 8.3 mph 94% 0.01 in 91.00 W/m2
11:09 28.3 °F 26.8 °F 30.32 in ENE 11.5 mph 10.0 mph 94% 0.01 in 86.00 W/m2
11:14 28.2 °F 26.7 °F 30.32 in ENE 11.0 mph 7.8 mph 94% 0.01 in 90.00 W/m2
11:19 28.2 °F 26.7 °F 30.32 in ENE 12.0 mph 8.6 mph 94% 0.01 in 93.00 W/m2
11:24 28.2 °F 26.7 °F 30.32 in ENE 11.5 mph 5.8 mph 94% 0.01 in 100.00 W/m2
11:29 28.3 °F 26.8 °F 30.31 in ENE 12.7 mph 9.1 mph 94% 0.01 in 98.00 W/m2
11:34 28.2 °F 26.7 °F 30.31 in ENE 10.4 mph 7.5 mph 94% 0.01 in 104.00 W/m2
11:39 28.2 °F 26.7 °F 30.30 in ENE 13.0 mph 9.2 mph 94% 0.01 in 109.00 W/m2
11:44 28.3 °F 26.8 °F 30.30 in ENE 11.5 mph 7.1 mph 94% 0.02 in 128.00 W/m2
11:49 28.3 °F 26.8 °F 30.30 in NE 11.5 mph 8.5 mph 94% 0.02 in 114.00 W/m2
11:54 28.3 °F 26.8 °F 30.30 in ENE 11.5 mph 8.4 mph 94% 0.02 in 156.00 W/m2
11:59 28.4 °F 26.9 °F 30.29 in NE 11.5 mph 8.3 mph 94% 0.02 in 199.00 W/m2
12:04 28.5 °F 27.0 °F 30.29 in ENE 11.5 mph 8.2 mph 94% 0.01 in 160.00 W/m2
12:09 28.5 °F 27.0 °F 30.30 in ENE 11.5 mph 8.5 mph 94% 0.01 in 134.00 W/m2
12:14 28.4 °F 26.9 °F 30.30 in NE 11.5 mph 6.6 mph 94% 0.02 in 86.00 W/m2
12:19 28.3 °F 26.8 °F 30.30 in ENE 11.5 mph 8.5 mph 94% 0.03 in 102.00 W/m2
12:24 28.3 °F 26.8 °F 30.30 in ENE 10.4 mph 7.0 mph 94% 0.03 in 134.00 W/m2
12:29 28.4 °F 26.9 °F 30.30 in ENE 11.5 mph 9.1 mph 94% 0.04 in 139.00 W/m2
12:34 28.4 °F 26.9 °F 30.30 in NE 11.5 mph 7.8 mph 94% 0.04 in 153.00 W/m2
12:39 28.4 °F 26.9 °F 30.30 in ENE 10.4 mph 7.9 mph 94% 0.04 in 121.00 W/m2
12:44 28.4 °F 26.9 °F 30.30 in ENE 11.5 mph 9.2 mph 94% 0.04 in 130.00 W/m2
12:49 28.4 °F 26.9 °F 30.29 in ENE 12.0 mph 9.4 mph 94% 0.04 in 95.00 W/m2
12:54 28.3 °F 26.8 °F 30.29 in North 11.5 mph 9.3 mph 94% 0.04 in 107.00 W/m2
12:59 28.3 °F 26.8 °F 30.28 in ENE 14.0 mph 9.7 mph 94% 0.04 in 137.00 W/m2
13:04 28.3 °F 26.8 °F 30.27 in North 13.8 mph 12.9 mph 94% 0.05 in 144.00 W/m2
13:09 28.2 °F 26.7 °F 30.27 in NE 14.0 mph 9.6 mph 94% 0.05 in 114.00 W/m2
13:14 28.2 °F 26.7 °F 30.27 in ENE 13.8 mph 11.3 mph 94% 0.04 in 158.00 W/m2
13:19 28.3 °F 26.8 °F 30.28 in ENE 11.5 mph 9.3 mph 94% 0.04 in 190.00 W/m2
13:24 28.4 °F 26.9 °F 30.28 in ENE 11.5 mph 10.4 mph 94% 0.04 in 153.00 W/m2
13:29 28.4 °F 26.9 °F 30.28 in East 12.7 mph 10.1 mph 94% 0.03 in 172.00 W/m2
13:34 28.4 °F 26.9 °F 30.29 in North 13.8 mph 9.9 mph 94% 0.03 in 186.00 W/m2
13:39 28.4 °F 26.9 °F 30.29 in ENE 12.7 mph 8.6 mph 94% 0.03 in 165.00 W/m2
13:44 28.4 °F 26.9 °F 30.29 in ENE 12.7 mph 7.5 mph 94% 0.03 in 146.00 W/m2
13:49 28.4 °F 26.9 °F 30.29 in North 12.7 mph 9.7 mph 94% 0.03 in 123.00 W/m2
13:54 28.3 °F 26.8 °F 30.29 in ENE 13.0 mph 11.5 mph 94% 0.03 in 123.00 W/m2
13:59 28.2 °F 26.7 °F 30.29 in North 15.0 mph 11.1 mph 94% 0.03 in 130.00 W/m2
14:04 28.2 °F 26.7 °F 30.28 in NE 13.8 mph 9.9 mph 94% 0.02 in 146.00 W/m2
14:09 28.2 °F 26.7 °F 30.27 in ENE 16.0 mph 10.2 mph 94% 0.02 in 158.00 W/m2
14:14 28.3 °F 26.8 °F 30.27 in ENE 13.8 mph 9.5 mph 94% 0.02 in 151.00 W/m2
14:19 28.3 °F 26.8 °F 30.28 in ENE 15.0 mph 11.1 mph 94% 0.01 in 127.00 W/m2
14:24 28.3 °F 26.8 °F 30.27 in ENE 13.8 mph 9.4 mph 94% 0.01 in 149.00 W/m2
14:29 28.2 °F 26.7 °F 30.27 in ENE 16.1 mph 12.0 mph 94% 0.01 in 188.00 W/m2
14:34 28.2 °F 26.7 °F 30.27 in ENE 15.0 mph 10.5 mph 94% 0.01 in 171.00 W/m2
14:39 28.2 °F 26.7 °F 30.27 in East 15.0 mph 12.0 mph 94% 0.01 in 178.00 W/m2
14:44 28.2 °F 26.7 °F 30.28 in North 16.1 mph 10.5 mph 94% 0.01 in 197.00 W/m2
14:49 28.3 °F 26.8 °F 30.28 in ENE 15.0 mph 11.4 mph 94% 0.01 in 163.00 W/m2
14:54 28.2 °F 26.7 °F 30.27 in ENE 17.3 mph 13.0 mph 94% 0.01 in 134.00 W/m2
14:59 28.1 °F 26.6 °F 30.27 in ENE 15.0 mph 10.9 mph 94% 0.01 in 107.00 W/m2
15:04 28.1 °F 26.6 °F 30.27 in ENE 12.7 mph 11.2 mph 94% 0.01 in 91.00 W/m2
15:09 28.0 °F 26.5 °F 30.27 in ENE 12.7 mph 11.4 mph 94% 0.01 in 98.00 W/m2
15:14 28.1 °F 26.6 °F 30.27 in NE 12.7 mph 11.5 mph 94% 0.01 in 72.00 W/m2
15:19 28.0 °F 26.5 °F 30.27 in ENE 16.1 mph 11.7 mph 94% 0.01 in 56.00 W/m2
15:24 27.9 °F 26.4 °F 30.27 in NE 15.0 mph 12.0 mph 94% 0.01 in 65.00 W/m2
15:29 28.0 °F 26.5 °F 30.27 in ENE 13.8 mph 11.3 mph 94% 0.01 in 74.00 W/m2
15:34 28.0 °F 26.5 °F 30.27 in North 9.2 mph 9.0 mph 94% 0.01 in 79.00 W/m2
15:39 28.0 °F 26.5 °F 30.27 in NE 15.0 mph 12.3 mph 94% 0.01 in 97.00 W/m2
15:44 28.1 °F 26.6 °F 30.27 in ENE 14.0 mph 10.7 mph 94% 0.00 in 86.00 W/m2
15:49 28.1 °F 26.6 °F 30.27 in ENE 18.4 mph 12.0 mph 94% 0.00 in 83.00 W/m2
15:54 28.1 °F 26.6 °F 30.27 in ENE 15.0 mph 13.5 mph 94% 0.00 in 79.00 W/m2
15:59 28.0 °F 26.5 °F 30.27 in ENE 13.8 mph 10.8 mph 94% 0.00 in 69.00 W/m2
16:04 28.0 °F 26.5 °F 30.27 in NE 13.8 mph 10.3 mph 94% 0.00 in 53.00 W/m2
16:09 28.1 °F 26.6 °F 30.27 in North 13.8 mph 11.3 mph 94% 0.00 in 35.00 W/m2
16:14 28.0 °F 26.5 °F 30.27 in ENE 15.0 mph 13.1 mph 94% 0.00 in 30.00 W/m2
16:19 28.0 °F 26.5 °F 30.27 in ENE 14.0 mph 12.1 mph 94% 0.00 in 25.00 W/m2
16:24 28.0 °F 26.5 °F 30.28 in North 13.8 mph 10.6 mph 94% 0.00 in 18.00 W/m2
16:29 27.9 °F 26.4 °F 30.28 in ENE 13.8 mph 11.2 mph 94% 0.00 in 12.00 W/m2
16:34 27.9 °F 26.4 °F 30.28 in East 15.0 mph 10.6 mph 94% 0.00 in 7.00 W/m2
16:39 27.9 °F 26.4 °F 30.28 in ENE 17.3 mph 12.7 mph 94% 0.00 in 0.00 W/m2
16:44 27.9 °F 26.4 °F 30.28 in ENE 16.1 mph 13.1 mph 94% 0.00 in 0.00 W/m2
16:49 27.8 °F 26.3 °F 30.28 in ENE 13.8 mph 10.2 mph 94% 0.00 in 0.00 W/m2
16:54 27.8 °F 26.3 °F 30.28 in ENE 11.5 mph 8.6 mph 94% 0.00 in 0.00 W/m2
16:59 27.8 °F 26.3 °F 30.28 in ENE 12.7 mph 11.9 mph 94% 0.00 in 0.00 W/m2
17:04 27.7 °F 26.2 °F 30.28 in North 14.0 mph 11.3 mph 94% 0.00 in 0.00 W/m2
17:09 27.7 °F 26.2 °F 30.28 in ENE 12.0 mph 10.9 mph 94% 0.00 in 0.00 W/m2
17:14 27.6 °F 26.1 °F 30.28 in NE 17.3 mph 9.9 mph 94% 0.00 in 0.00 W/m2
17:19 27.5 °F 26.0 °F 30.28 in North 18.4 mph 11.4 mph 94% 0.00 in 0.00 W/m2
17:24 27.4 °F 25.9 °F 30.28 in ENE 13.8 mph 11.1 mph 94% 0.00 in 0.00 W/m2
17:29 27.4 °F 25.9 °F 30.28 in ENE 16.1 mph 12.2 mph 94% 0.00 in 0.00 W/m2
17:34 27.3 °F 25.8 °F 30.29 in ENE 13.8 mph 10.8 mph 94% 0.00 in 0.00 W/m2
17:39 27.3 °F 25.8 °F 30.29 in ENE 15.0 mph 9.8 mph 94% 0.00 in 0.00 W/m2
17:44 27.3 °F 25.8 °F 30.30 in ENE 13.8 mph 9.8 mph 94% 0.00 in 0.00 W/m2
17:49 27.2 °F 25.7 °F 30.30 in East 16.1 mph 12.3 mph 94% 0.00 in 0.00 W/m2
17:54 27.2 °F 25.7 °F 30.30 in ENE 13.8 mph 11.2 mph 94% 0.00 in 0.00 W/m2
17:59 27.2 °F 25.7 °F 30.30 in North 15.0 mph 10.4 mph 94% 0.00 in 0.00 W/m2
18:04 27.1 °F 25.6 °F 30.30 in ENE 12.7 mph 11.8 mph 94% 0.00 in 0.00 W/m2
18:09 27.1 °F 25.6 °F 30.30 in East 11.5 mph 10.2 mph 94% 0.00 in 0.00 W/m2
18:14 27.1 °F 25.6 °F 30.30 in NE 13.8 mph 9.9 mph 94% 0.00 in 0.00 W/m2
18:19 27.1 °F 25.6 °F 30.30 in ENE 15.0 mph 10.4 mph 94% 0.00 in 0.00 W/m2
18:24 27.1 °F 25.6 °F 30.30 in ENE 12.7 mph 10.5 mph 94% 0.00 in 0.00 W/m2
18:29 27.1 °F 25.6 °F 30.30 in ENE 12.7 mph 10.5 mph 94% 0.00 in 0.00 W/m2
18:34 27.0 °F 25.5 °F 30.30 in ENE 16.1 mph 12.4 mph 94% 0.00 in 0.00 W/m2
18:39 27.0 °F 25.5 °F 30.30 in ENE 16.1 mph 11.4 mph 94% 0.00 in 0.00 W/m2
18:44 27.0 °F 25.5 °F 30.30 in NE 15.0 mph 11.9 mph 94% 0.00 in 0.00 W/m2
18:49 27.0 °F 25.5 °F 30.30 in ENE 16.1 mph 10.4 mph 94% 0.00 in 0.00 W/m2
18:54 27.0 °F 25.5 °F 30.30 in ENE 13.8 mph 13.0 mph 94% 0.00 in 0.00 W/m2
18:59 27.0 °F 25.5 °F 30.30 in North 18.4 mph 13.0 mph 94% 0.00 in 0.00 W/m2
19:04 27.0 °F 25.5 °F 30.30 in North 16.1 mph 12.3 mph 94% 0.00 in 0.00 W/m2
19:09 26.9 °F 25.4 °F 30.30 in North 19.6 mph 12.9 mph 94% 0.00 in 0.00 W/m2
19:14 26.9 °F 25.4 °F 30.30 in North 12.7 mph 11.0 mph 94% 0.00 in 0.00 W/m2
19:19 26.9 °F 25.4 °F 30.31 in ENE 15.0 mph 11.3 mph 94% 0.00 in 0.00 W/m2
19:24 26.9 °F 25.4 °F 30.31 in ENE 12.7 mph 10.6 mph 94% 0.00 in 0.00 W/m2
19:29 26.8 °F 25.3 °F 30.30 in ENE 16.0 mph 11.5 mph 94% 0.00 in 0.00 W/m2
19:34 26.8 °F 25.3 °F 30.30 in North 17.3 mph 13.0 mph 94% 0.01 in 0.00 W/m2
19:39 26.7 °F 25.2 °F 30.30 in ENE 16.1 mph 11.8 mph 94% 0.02 in 0.00 W/m2
19:44 26.7 °F 25.2 °F 30.30 in ENE 16.1 mph 12.2 mph 94% 0.03 in 0.00 W/m2
19:49 26.7 °F 25.2 °F 30.30 in North 13.8 mph 12.2 mph 94% 0.04 in 0.00 W/m2
19:54 26.7 °F 25.2 °F 30.30 in ENE 13.8 mph 11.2 mph 94% 0.06 in 0.00 W/m2
19:59 26.7 °F 25.2 °F 30.30 in ENE 13.8 mph 10.5 mph 94% 0.06 in 0.00 W/m2
20:04 26.7 °F 25.2 °F 30.30 in East 16.0 mph 11.2 mph 94% 0.07 in 0.00 W/m2
20:09 26.7 °F 25.2 °F 30.30 in ENE 15.0 mph 10.0 mph 94% 0.08 in 0.00 W/m2
20:14 26.7 °F 25.2 °F 30.30 in ENE 12.7 mph 10.5 mph 94% 0.10 in 0.00 W/m2
20:19 26.7 °F 25.2 °F 30.30 in ENE 16.1 mph 12.5 mph 94% 0.10 in 0.00 W/m2
20:24 26.7 °F 25.2 °F 30.30 in North 15.0 mph 11.8 mph 94% 0.10 in 0.00 W/m2
20:29 26.7 °F 25.2 °F 30.30 in ENE 13.8 mph 10.3 mph 94% 0.11 in 0.00 W/m2
20:34 26.7 °F 25.2 °F 30.30 in ENE 15.0 mph 11.2 mph 94% 0.11 in 0.00 W/m2
20:39 26.7 °F 25.2 °F 30.30 in ENE 12.7 mph 9.9 mph 94% 0.11 in 0.00 W/m2
20:44 26.7 °F 25.2 °F 30.30 in NE 12.7 mph 10.0 mph 94% 0.11 in 0.00 W/m2
20:49 26.7 °F 25.2 °F 30.30 in ENE 15.0 mph 10.5 mph 94% 0.11 in 0.00 W/m2
20:54 26.7 °F 25.2 °F 30.30 in ENE 15.0 mph 11.2 mph 94% 0.10 in 0.00 W/m2
20:59 26.7 °F 25.2 °F 30.30 in NE 12.7 mph 11.8 mph 94% 0.11 in 0.00 W/m2
21:04 26.7 °F 25.2 °F 30.30 in North 13.8 mph 9.6 mph 94% 0.11 in 0.00 W/m2
21:09 26.7 °F 25.2 °F 30.30 in NE 11.5 mph 9.3 mph 94% 0.11 in 0.00 W/m2
21:14 26.7 °F 25.2 °F 30.30 in NE 12.7 mph 11.2 mph 94% 0.09 in 0.00 W/m2
21:19 26.8 °F 25.3 °F 30.30 in ENE 13.8 mph 11.8 mph 94% 0.09 in 0.00 W/m2
21:24 26.8 °F 25.3 °F 30.31 in NE 12.0 mph 10.0 mph 94% 0.10 in 0.00 W/m2
21:29 26.8 °F 25.3 °F 30.31 in NE 11.5 mph 10.4 mph 94% 0.10 in 0.00 W/m2
21:34 26.8 °F 25.3 °F 30.31 in NE 12.7 mph 8.5 mph 94% 0.10 in 0.00 W/m2
21:39 26.9 °F 25.4 °F 30.31 in ENE 11.5 mph 10.9 mph 94% 0.10 in 0.00 W/m2
21:44 26.9 °F 25.4 °F 30.31 in ENE 14.0 mph 9.4 mph 94% 0.09 in 0.00 W/m2
21:49 26.9 °F 25.4 °F 30.31 in ENE 14.0 mph 11.0 mph 94% 0.09 in 0.00 W/m2
21:54 26.9 °F 25.4 °F 30.31 in North 12.7 mph 9.8 mph 94% 0.08 in 0.00 W/m2
21:59 26.9 °F 25.4 °F 30.31 in North 12.7 mph 9.7 mph 94% 0.07 in 0.00 W/m2
22:04 26.9 °F 25.4 °F 30.31 in NE 12.7 mph 10.4 mph 94% 0.07 in 0.00 W/m2
22:09 26.9 °F 25.4 °F 30.31 in NE 13.0 mph 10.8 mph 94% 0.06 in 0.00 W/m2
22:14 26.9 °F 25.4 °F 30.31 in NE 11.5 mph 8.7 mph 94% 0.07 in 0.00 W/m2
22:19 26.9 °F 25.4 °F 30.31 in ENE 11.5 mph 10.0 mph 94% 0.07 in 0.00 W/m2
22:24 27.0 °F 25.5 °F 30.31 in NE 12.7 mph 9.7 mph 94% 0.07 in 0.00 W/m2
22:29 27.0 °F 25.5 °F 30.31 in NE 12.7 mph 10.1 mph 94% 0.07 in 0.00 W/m2
22:34 26.9 °F 25.4 °F 30.31 in NE 11.5 mph 9.6 mph 94% 0.06 in 0.00 W/m2
22:39 26.9 °F 25.4 °F 30.31 in NE 12.0 mph 8.6 mph 94% 0.06 in 0.00 W/m2
22:44 26.9 °F 25.4 °F 30.31 in NNE 15.0 mph 10.2 mph 94% 0.06 in 0.00 W/m2
22:49 26.9 °F 25.4 °F 30.31 in NE 12.7 mph 10.7 mph 94% 0.06 in 0.00 W/m2
22:54 26.9 °F 25.4 °F 30.31 in NE 13.0 mph 9.8 mph 94% 0.06 in 0.00 W/m2
22:59 26.9 °F 25.4 °F 30.31 in ENE 13.0 mph 9.7 mph 94% 0.07 in 0.00 W/m2
23:04 26.9 °F 25.4 °F 30.31 in NE 13.8 mph 9.4 mph 94% 0.06 in 0.00 W/m2
23:09 26.9 °F 25.4 °F 30.31 in North 11.5 mph 9.7 mph 94% 0.07 in 0.00 W/m2
23:14 26.9 °F 25.4 °F 30.30 in NE 13.0 mph 11.2 mph 94% 0.06 in 0.00 W/m2
23:19 26.9 °F 25.4 °F 30.30 in NE 13.0 mph 11.2 mph 94% 0.07 in 0.00 W/m2
23:24 26.9 °F 25.4 °F 30.30 in NE 14.0 mph 10.3 mph 94% 0.06 in 0.00 W/m2
23:29 26.9 °F 25.4 °F 30.30 in NE 12.7 mph 8.1 mph 94% 0.05 in 0.00 W/m2
23:34 26.9 °F 25.4 °F 30.30 in NE 11.5 mph 8.8 mph 94% 0.06 in 0.00 W/m2
23:39 26.9 °F 25.4 °F 30.30 in NE 12.7 mph 9.4 mph 94% 0.05 in 0.00 W/m2
23:44 26.9 °F 25.4 °F 30.31 in North 12.7 mph 9.8 mph 94% 0.05 in 0.00 W/m2
23:49 26.9 °F 25.4 °F 30.31 in North 13.8 mph 9.7 mph 94% 0.04 in 0.00 W/m2
23:54 26.9 °F 25.4 °F 30.31 in NE 12.7 mph 11.6 mph 94% 0.04 in 0.00 W/m2
23:59 26.9 °F 25.4 °F 30.30 in NE 11.5 mph 10.5 mph 94% 0.04 in 0.00 W/m2
Bourbonnais, Illinois, USA
Compliments of Weather Underground - 4 mb